sensor_id;sensor_type;location;lat;lon;timestamp;pressure;altitude;pressure_sealevel;temperature;humidity
57442;BME280;43284;47.042;15.498;2023-01-25T00:02:08;98608.81;;;2.01;100.00
57442;BME280;43284;47.042;15.498;2023-01-25T00:04:33;98603.63;;;1.97;100.00
57442;BME280;43284;47.042;15.498;2023-01-25T00:06:59;98608.78;;;2.00;100.00
57442;BME280;43284;47.042;15.498;2023-01-25T00:09:24;98610.47;;;1.96;100.00
57442;BME280;43284;47.042;15.498;2023-01-25T00:11:50;98612.94;;;1.85;100.00
57442;BME280;43284;47.042;15.498;2023-01-25T00:14:15;98612.06;;;1.82;100.00
57442;BME280;43284;47.042;15.498;2023-01-25T00:16:41;98608.59;;;1.81;100.00
57442;BME280;43284;47.042;15.498;2023-01-25T00:19:07;98607.75;;;1.79;100.00
57442;BME280;43284;47.042;15.498;2023-01-25T00:21:32;98599.97;;;1.76;100.00
57442;BME280;43284;47.042;15.498;2023-01-25T00:23:59;98610.28;;;1.76;100.00
57442;BME280;43284;47.042;15.498;2023-01-25T00:26:24;98613.72;;;1.75;100.00
57442;BME280;43284;47.042;15.498;2023-01-25T00:28:50;98616.31;;;1.75;100.00
57442;BME280;43284;47.042;15.498;2023-01-25T00:31:25;98611.09;;;1.72;100.00
57442;BME280;43284;47.042;15.498;2023-01-25T00:34:05;98610.25;;;1.72;100.00
57442;BME280;43284;47.042;15.498;2023-01-25T00:39:03;98613.59;;;1.66;100.00
57442;BME280;43284;47.042;15.498;2023-01-25T00:41:29;98612.75;;;1.65;100.00
57442;BME280;43284;47.042;15.498;2023-01-25T00:43:55;98617.06;;;1.67;100.00
57442;BME280;43284;47.042;15.498;2023-01-25T00:46:21;98610.19;;;1.67;100.00
57442;BME280;43284;47.042;15.498;2023-01-25T00:48:46;98610.19;;;1.65;100.00
57442;BME280;43284;47.042;15.498;2023-01-25T00:51:12;98611.00;;;1.63;100.00
57442;BME280;43284;47.042;15.498;2023-01-25T00:53:37;98611.88;;;1.62;100.00
57442;BME280;43284;47.042;15.498;2023-01-25T00:56:03;98610.16;;;1.62;100.00
57442;BME280;43284;47.042;15.498;2023-01-25T00:58:28;98616.13;;;1.61;100.00
57442;BME280;43284;47.042;15.498;2023-01-25T01:00:54;98617.84;;;1.61;100.00
57442;BME280;43284;47.042;15.498;2023-01-25T01:03:20;98614.41;;;1.59;100.00
57442;BME280;43284;47.042;15.498;2023-01-25T01:05:46;98619.50;;;1.54;100.00
57442;BME280;43284;47.042;15.498;2023-01-25T01:08:12;98618.66;;;1.54;100.00
57442;BME280;43284;47.042;15.498;2023-01-25T01:10:38;98616.94;;;1.54;100.00
57442;BME280;43284;47.042;15.498;2023-01-25T01:13:04;98612.63;;;1.55;100.00
57442;BME280;43284;47.042;15.498;2023-01-25T01:15:29;98613.47;;;1.52;100.00
57442;BME280;43284;47.042;15.498;2023-01-25T01:17:54;98615.22;;;1.53;100.00
57442;BME280;43284;47.042;15.498;2023-01-25T01:20:20;98620.31;;;1.50;100.00
57442;BME280;43284;47.042;15.498;2023-01-25T01:22:45;98612.63;;;1.52;100.00
57442;BME280;43284;47.042;15.498;2023-01-25T01:25:11;98607.38;;;1.46;100.00
57442;BME280;43284;47.042;15.498;2023-01-25T01:27:37;98615.94;;;1.43;100.00
57442;BME280;43284;47.042;15.498;2023-01-25T01:30:03;98611.72;;;1.47;100.00
57442;BME280;43284;47.042;15.498;2023-01-25T01:32:28;98607.41;;;1.47;100.00
57442;BME280;43284;47.042;15.498;2023-01-25T01:34:53;98610.81;;;1.46;100.00
57442;BME280;43284;47.042;15.498;2023-01-25T01:37:19;98617.69;;;1.46;100.00
57442;BME280;43284;47.042;15.498;2023-01-25T01:39:44;98621.94;;;1.42;100.00
57442;BME280;43284;47.042;15.498;2023-01-25T01:42:09;98617.66;;;1.44;100.00
57442;BME280;43284;47.042;15.498;2023-01-25T01:44:51;98623.72;;;1.48;100.00
57442;BME280;43284;47.042;15.498;2023-01-25T01:47:24;98616.81;;;1.43;100.00
57442;BME280;43284;47.042;15.498;2023-01-25T01:49:56;98622.81;;;1.42;100.00
57442;BME280;43284;47.042;15.498;2023-01-25T01:52:27;98622.78;;;1.41;100.00
57442;BME280;43284;47.042;15.498;2023-01-25T01:54:56;98624.53;;;1.40;100.00
57442;BME280;43284;47.042;15.498;2023-01-25T01:57:25;98626.19;;;1.40;100.00
57442;BME280;43284;47.042;15.498;2023-01-25T02:00:03;98624.53;;;1.40;100.00
57442;BME280;43284;47.042;15.498;2023-01-25T02:02:29;98618.50;;;1.41;100.00
57442;BME280;43284;47.042;15.498;2023-01-25T02:04:55;98621.09;;;1.43;100.00
57442;BME280;43284;47.042;15.498;2023-01-25T02:07:34;98619.34;;;1.42;100.00
57442;BME280;43284;47.042;15.498;2023-01-25T02:10:01;98618.56;;;1.44;100.00
57442;BME280;43284;47.042;15.498;2023-01-25T02:12:27;98613.38;;;1.43;100.00
57442;BME280;43284;47.042;15.498;2023-01-25T02:14:54;98611.69;;;1.45;100.00
57442;BME280;43284;47.042;15.498;2023-01-25T02:17:40;98612.53;;;1.42;100.00
57442;BME280;43284;47.042;15.498;2023-01-25T02:20:09;98603.00;;;1.37;100.00
57442;BME280;43284;47.042;15.498;2023-01-25T02:23:00;98603.84;;;1.36;100.00
57442;BME280;43284;47.042;15.498;2023-01-25T02:25:24;98601.22;;;1.31;100.00
57442;BME280;43284;47.042;15.498;2023-01-25T02:27:51;98596.06;;;1.33;100.00
57442;BME280;43284;47.042;15.498;2023-01-25T02:30:17;98601.22;;;1.30;100.00
57442;BME280;43284;47.042;15.498;2023-01-25T02:32:43;98596.91;;;1.30;100.00
57442;BME280;43284;47.042;15.498;2023-01-25T02:35:16;98590.94;;;1.31;100.00
57442;BME280;43284;47.042;15.498;2023-01-25T02:37:43;98593.47;;;1.30;100.00
57442;BME280;43284;47.042;15.498;2023-01-25T02:40:09;98596.91;;;1.30;100.00
57442;BME280;43284;47.042;15.498;2023-01-25T02:42:35;98598.66;;;1.33;100.00
57442;BME280;43284;47.042;15.498;2023-01-25T02:45:00;98598.66;;;1.31;100.00
57442;BME280;43284;47.042;15.498;2023-01-25T02:47:26;98594.38;;;1.32;100.00
57442;BME280;43284;47.042;15.498;2023-01-25T02:49:51;98594.34;;;1.33;100.00
57442;BME280;43284;47.042;15.498;2023-01-25T02:52:17;98588.38;;;1.34;100.00
57442;BME280;43284;47.042;15.498;2023-01-25T02:54:42;98584.06;;;1.33;100.00
57442;BME280;43284;47.042;15.498;2023-01-25T02:57:08;98585.75;;;1.30;100.00
57442;BME280;43284;47.042;15.498;2023-01-25T02:59:34;98583.28;;;1.39;100.00
57442;BME280;43284;47.042;15.498;2023-01-25T03:02:00;98576.31;;;1.33;100.00
57442;BME280;43284;47.042;15.498;2023-01-25T03:04:26;98580.59;;;1.30;100.00
57442;BME280;43284;47.042;15.498;2023-01-25T03:06:51;98568.56;;;1.30;100.00
57442;BME280;43284;47.042;15.498;2023-01-25T03:09:17;98571.97;;;1.26;100.00
57442;BME280;43284;47.042;15.498;2023-01-25T03:11:42;98566.88;;;1.29;100.00
57442;BME280;43284;47.042;15.498;2023-01-25T03:14:08;98567.72;;;1.30;100.00
57442;BME280;43284;47.042;15.498;2023-01-25T03:16:33;98570.31;;;1.31;100.00
57442;BME280;43284;47.042;15.498;2023-01-25T03:18:58;98567.75;;;1.33;100.00
57442;BME280;43284;47.042;15.498;2023-01-25T03:21:25;98563.47;;;1.35;100.00
57442;BME280;43284;47.042;15.498;2023-01-25T03:23:54;98555.72;;;1.32;100.00
57442;BME280;43284;47.042;15.498;2023-01-25T03:26:21;98554.84;;;1.30;100.00
57442;BME280;43284;47.042;15.498;2023-01-25T03:28:47;98561.72;;;1.31;100.00
57442;BME280;43284;47.042;15.498;2023-01-25T03:31:13;98556.56;;;1.29;100.00
57442;BME280;43284;47.042;15.498;2023-01-25T03:33:39;98562.53;;;1.28;100.00
57442;BME280;43284;47.042;15.498;2023-01-25T03:36:04;98553.97;;;1.29;100.00
57442;BME280;43284;47.042;15.498;2023-01-25T03:38:30;98553.97;;;1.29;100.00
57442;BME280;43284;47.042;15.498;2023-01-25T03:40:56;98551.41;;;1.31;100.00
57442;BME280;43284;47.042;15.498;2023-01-25T03:43:21;98554.84;;;1.33;100.00
57442;BME280;43284;47.042;15.498;2023-01-25T03:45:50;98550.56;;;1.32;100.00
57442;BME280;43284;47.042;15.498;2023-01-25T03:48:16;98547.13;;;1.30;100.00
57442;BME280;43284;47.042;15.498;2023-01-25T03:50:42;98553.09;;;1.29;100.00
57442;BME280;43284;47.042;15.498;2023-01-25T03:53:07;98547.09;;;1.28;100.00
57442;BME280;43284;47.042;15.498;2023-01-25T03:55:44;98548.84;;;1.29;100.00
57442;BME280;43284;47.042;15.498;2023-01-25T03:58:09;98549.66;;;1.25;100.00
57442;BME280;43284;47.042;15.498;2023-01-25T04:00:34;98547.94;;;1.29;100.00
57442;BME280;43284;47.042;15.498;2023-01-25T04:03:00;98550.53;;;1.29;100.00
57442;BME280;43284;47.042;15.498;2023-01-25T04:05:25;98541.91;;;1.25;100.00
57442;BME280;43284;47.042;15.498;2023-01-25T04:07:51;98547.09;;;1.28;100.00
57442;BME280;43284;47.042;15.498;2023-01-25T04:10:16;98541.03;;;1.24;100.00
57442;BME280;43284;47.042;15.498;2023-01-25T04:12:42;98537.66;;;1.27;100.00
57442;BME280;43284;47.042;15.498;2023-01-25T04:15:07;98536.75;;;1.27;100.00
57442;BME280;43284;47.042;15.498;2023-01-25T04:17:33;98532.47;;;1.26;100.00
57442;BME280;43284;47.042;15.498;2023-01-25T04:19:58;98529.88;;;1.22;100.00
57442;BME280;43284;47.042;15.498;2023-01-25T04:22:24;98522.13;;;1.24;100.00
57442;BME280;43284;47.042;15.498;2023-01-25T04:24:49;98535.88;;;1.24;100.00
57442;BME280;43284;47.042;15.498;2023-01-25T04:27:15;98526.44;;;1.23;100.00
57442;BME280;43284;47.042;15.498;2023-01-25T04:29:40;98524.75;;;1.26;100.00
57442;BME280;43284;47.042;15.498;2023-01-25T04:32:06;98519.59;;;1.26;100.00
57442;BME280;43284;47.042;15.498;2023-01-25T04:34:31;98520.41;;;1.24;100.00
57442;BME280;43284;47.042;15.498;2023-01-25T04:36:57;98522.16;;;1.26;100.00
57442;BME280;43284;47.042;15.498;2023-01-25T04:39:22;98526.47;;;1.25;100.00
57442;BME280;43284;47.042;15.498;2023-01-25T04:41:48;98524.72;;;1.22;100.00
57442;BME280;43284;47.042;15.498;2023-01-25T04:44:13;98528.94;;;1.17;100.00
57442;BME280;43284;47.042;15.498;2023-01-25T04:46:38;98524.66;;;1.19;100.00
57442;BME280;43284;47.042;15.498;2023-01-25T04:49:04;98522.06;;;1.18;100.00
57442;BME280;43284;47.042;15.498;2023-01-25T04:51:29;98524.69;;;1.21;100.00
57442;BME280;43284;47.042;15.498;2023-01-25T04:53:55;98528.13;;;1.21;100.00
57442;BME280;43284;47.042;15.498;2023-01-25T04:56:20;98532.34;;;1.12;100.00
57442;BME280;43284;47.042;15.498;2023-01-25T04:58:45;98533.19;;;1.12;100.00
57442;BME280;43284;47.042;15.498;2023-01-25T05:01:11;98535.72;;;1.11;100.00
57442;BME280;43284;47.042;15.498;2023-01-25T05:03:36;98534.91;;;1.13;100.00
57442;BME280;43284;47.042;15.498;2023-01-25T05:06:02;98524.56;;;1.10;100.00
57442;BME280;43284;47.042;15.498;2023-01-25T05:08:27;98524.59;;;1.13;100.00
57442;BME280;43284;47.042;15.498;2023-01-25T05:10:53;98533.22;;;1.14;100.00
57442;BME280;43284;47.042;15.498;2023-01-25T05:13:18;98528.91;;;1.13;100.00
57442;BME280;43284;47.042;15.498;2023-01-25T05:15:44;98519.44;;;1.13;100.00
57442;BME280;43284;47.042;15.498;2023-01-25T05:18:09;98522.91;;;1.14;100.00
57442;BME280;43284;47.042;15.498;2023-01-25T05:20:34;98528.06;;;1.14;100.00
57442;BME280;43284;47.042;15.498;2023-01-25T05:23:00;98524.59;;;1.13;100.00
57442;BME280;43284;47.042;15.498;2023-01-25T05:25:25;98529.75;;;1.12;100.00
57442;BME280;43284;47.042;15.498;2023-01-25T05:28:09;98526.28;;;1.11;100.00
57442;BME280;43284;47.042;15.498;2023-01-25T05:30:35;98525.44;;;1.11;100.00
57442;BME280;43284;47.042;15.498;2023-01-25T05:33:00;98530.56;;;1.09;100.00
57442;BME280;43284;47.042;15.498;2023-01-25T05:35:26;98519.41;;;1.09;100.00
57442;BME280;43284;47.042;15.498;2023-01-25T05:37:58;98521.22;;;1.17;100.00
57442;BME280;43284;47.042;15.498;2023-01-25T05:40:24;98525.50;;;1.14;100.00
57442;BME280;43284;47.042;15.498;2023-01-25T05:42:56;98526.31;;;1.13;100.00
57442;BME280;43284;47.042;15.498;2023-01-25T05:45:22;98533.13;;;1.09;100.00
57442;BME280;43284;47.042;15.498;2023-01-25T05:47:51;98531.41;;;1.07;100.00
57442;BME280;43284;47.042;15.498;2023-01-25T05:50:17;98533.97;;;1.07;100.00
57442;BME280;43284;47.042;15.498;2023-01-25T05:52:44;98541.72;;;1.08;100.00
57442;BME280;43284;47.042;15.498;2023-01-25T05:55:09;98541.72;;;1.08;100.00
57442;BME280;43284;47.042;15.498;2023-01-25T05:57:35;98541.75;;;1.10;100.00
57442;BME280;43284;47.042;15.498;2023-01-25T06:00:00;98542.63;;;1.12;100.00
57442;BME280;43284;47.042;15.498;2023-01-25T06:02:26;98542.63;;;1.13;100.00
57442;BME280;43284;47.042;15.498;2023-01-25T06:04:51;98544.31;;;1.11;100.00
57442;BME280;43284;47.042;15.498;2023-01-25T06:07:16;98550.34;;;1.13;100.00
57442;BME280;43284;47.042;15.498;2023-01-25T06:09:42;98546.97;;;1.17;100.00
57442;BME280;43284;47.042;15.498;2023-01-25T06:12:07;98548.66;;;1.14;100.00
57442;BME280;43284;47.042;15.498;2023-01-25T06:14:34;98560.63;;;1.10;100.00
57442;BME280;43284;47.042;15.498;2023-01-25T06:17:00;98558.91;;;1.11;100.00
57442;BME280;43284;47.042;15.498;2023-01-25T06:19:25;98568.38;;;1.12;100.00
57442;BME280;43284;47.042;15.498;2023-01-25T06:21:51;98559.78;;;1.13;100.00
57442;BME280;43284;47.042;15.498;2023-01-25T06:24:16;98559.81;;;1.14;100.00
57442;BME280;43284;47.042;15.498;2023-01-25T06:26:41;98565.00;;;1.17;100.00
57442;BME280;43284;47.042;15.498;2023-01-25T06:29:07;98571.03;;;1.19;100.00
57442;BME280;43284;47.042;15.498;2023-01-25T06:31:32;98571.88;;;1.18;100.00
57442;BME280;43284;47.042;15.498;2023-01-25T06:33:58;98567.53;;;1.16;100.00
57442;BME280;43284;47.042;15.498;2023-01-25T06:36:28;98572.69;;;1.14;100.00
57442;BME280;43284;47.042;15.498;2023-01-25T06:38:54;98573.56;;;1.15;100.00
57442;BME280;43284;47.042;15.498;2023-01-25T06:41:19;98572.69;;;1.14;100.00
57442;BME280;43284;47.042;15.498;2023-01-25T06:43:45;98578.72;;;1.15;100.00
57442;BME280;43284;47.042;15.498;2023-01-25T06:46:12;98579.59;;;1.17;100.00
57442;BME280;43284;47.042;15.498;2023-01-25T06:48:37;98578.72;;;1.16;100.00
57442;BME280;43284;47.042;15.498;2023-01-25T06:51:04;98581.31;;;1.18;100.00
57442;BME280;43284;47.042;15.498;2023-01-25T06:53:31;98583.88;;;1.18;100.00
57442;BME280;43284;47.042;15.498;2023-01-25T06:55:57;98584.75;;;1.20;100.00
57442;BME280;43284;47.042;15.498;2023-01-25T06:58:23;98578.78;;;1.21;100.00
57442;BME280;43284;47.042;15.498;2023-01-25T07:00:48;98569.31;;;1.18;100.00
57442;BME280;43284;47.042;15.498;2023-01-25T07:03:14;98570.19;;;1.22;100.00
57442;BME280;43284;47.042;15.498;2023-01-25T07:05:39;98559.06;;;1.23;100.00
57442;BME280;43284;47.042;15.498;2023-01-25T07:08:05;98557.34;;;1.23;100.00
57442;BME280;43284;47.042;15.498;2023-01-25T07:10:30;98562.50;;;1.23;100.00
57442;BME280;43284;47.042;15.498;2023-01-25T07:12:55;98565.94;;;1.26;100.00
57442;BME280;43284;47.042;15.498;2023-01-25T07:15:21;98555.59;;;1.21;100.00
57442;BME280;43284;47.042;15.498;2023-01-25T07:17:46;98551.31;;;1.24;100.00
57442;BME280;43284;47.042;15.498;2023-01-25T07:20:11;98552.19;;;1.23;100.00
57442;BME280;43284;47.042;15.498;2023-01-25T07:22:37;98541.06;;;1.26;100.00
57442;BME280;43284;47.042;15.498;2023-01-25T07:25:02;98537.59;;;1.22;100.00
57442;BME280;43284;47.042;15.498;2023-01-25T07:27:31;98543.59;;;1.23;100.00
57442;BME280;43284;47.042;15.498;2023-01-25T07:29:56;98540.09;;;1.18;100.00
57442;BME280;43284;47.042;15.498;2023-01-25T07:32:22;98533.22;;;1.15;100.00
57442;BME280;43284;47.042;15.498;2023-01-25T07:34:47;98535.81;;;1.20;100.00
57442;BME280;43284;47.042;15.498;2023-01-25T07:37:13;98529.81;;;1.16;100.00
57442;BME280;43284;47.042;15.498;2023-01-25T07:39:38;98535.81;;;1.20;100.00
57442;BME280;43284;47.042;15.498;2023-01-25T07:42:11;98529.81;;;1.16;100.00
57442;BME280;43284;47.042;15.498;2023-01-25T07:44:37;98532.41;;;1.19;100.00
57442;BME280;43284;47.042;15.498;2023-01-25T07:47:02;98523.81;;;1.19;100.00
57442;BME280;43284;47.042;15.498;2023-01-25T07:49:27;98526.38;;;1.19;100.00
57442;BME280;43284;47.042;15.498;2023-01-25T07:51:53;98524.69;;;1.21;100.00
57442;BME280;43284;47.042;15.498;2023-01-25T07:54:18;98528.97;;;1.22;100.00
57442;BME280;43284;47.042;15.498;2023-01-25T07:56:43;98534.19;;;1.25;100.00
57442;BME280;43284;47.042;15.498;2023-01-25T07:59:09;98535.03;;;1.26;100.00
57442;BME280;43284;47.042;15.498;2023-01-25T08:01:34;98529.00;;;1.23;100.00
57442;BME280;43284;47.042;15.498;2023-01-25T08:04:01;98528.13;;;1.21;100.00
57442;BME280;43284;47.042;15.498;2023-01-25T08:06:28;98531.59;;;1.23;100.00
57442;BME280;43284;47.042;15.498;2023-01-25T08:09:00;98534.13;;;1.20;100.00
57442;BME280;43284;47.042;15.498;2023-01-25T08:11:26;98535.88;;;1.23;100.00
57442;BME280;43284;47.042;15.498;2023-01-25T08:13:52;98541.09;;;1.29;100.00
57442;BME280;43284;47.042;15.498;2023-01-25T08:16:18;98536.75;;;1.23;100.00
57442;BME280;43284;47.042;15.498;2023-01-25T08:18:48;98534.13;;;1.22;100.00
57442;BME280;43284;47.042;15.498;2023-01-25T08:21:14;98534.13;;;1.20;100.00
57442;BME280;43284;47.042;15.498;2023-01-25T08:23:39;98533.25;;;1.18;100.00
57442;BME280;43284;47.042;15.498;2023-01-25T08:26:05;98534.94;;;1.15;100.00
57442;BME280;43284;47.042;15.498;2023-01-25T08:28:31;98532.34;;;1.15;100.00
57442;BME280;43284;47.042;15.498;2023-01-25T08:31:10;98535.72;;;1.11;100.00
57442;BME280;43284;47.042;15.498;2023-01-25T08:33:36;98540.09;;;1.16;100.00
57442;BME280;43284;47.042;15.498;2023-01-25T08:36:02;98546.19;;;1.23;100.00
57442;BME280;43284;47.042;15.498;2023-01-25T08:38:28;98544.50;;;1.28;100.00
57442;BME280;43284;47.042;15.498;2023-01-25T08:40:54;98546.19;;;1.26;100.00
57442;BME280;43284;47.042;15.498;2023-01-25T08:43:20;98542.78;;;1.27;100.00
57442;BME280;43284;47.042;15.498;2023-01-25T08:45:46;98543.59;;;1.24;100.00
57442;BME280;43284;47.042;15.498;2023-01-25T08:48:12;98535.06;;;1.29;100.00
57442;BME280;43284;47.042;15.498;2023-01-25T08:50:44;98536.84;;;1.31;100.00
57442;BME280;43284;47.042;15.498;2023-01-25T08:53:10;98530.81;;;1.32;100.00
57442;BME280;43284;47.042;15.498;2023-01-25T08:55:35;98534.28;;;1.37;100.00
57442;BME280;43284;47.042;15.498;2023-01-25T08:58:00;98536.88;;;1.37;100.00
57442;BME280;43284;47.042;15.498;2023-01-25T09:00:26;98533.44;;;1.37;100.00
57442;BME280;43284;47.042;15.498;2023-01-25T09:02:51;98530.84;;;1.35;100.00
57442;BME280;43284;47.042;15.498;2023-01-25T09:05:17;98536.81;;;1.33;100.00
57442;BME280;43284;47.042;15.498;2023-01-25T09:07:42;98533.44;;;1.37;100.00
57442;BME280;43284;47.042;15.498;2023-01-25T09:10:07;98535.19;;;1.41;100.00
57442;BME280;43284;47.042;15.498;2023-01-25T09:12:34;98524.06;;;1.43;100.00
57442;BME280;43284;47.042;15.498;2023-01-25T09:15:00;98520.63;;;1.46;100.00
57442;BME280;43284;47.042;15.498;2023-01-25T09:17:25;98520.69;;;1.51;100.00
57442;BME280;43284;47.042;15.498;2023-01-25T09:19:50;98525.88;;;1.54;100.00
57442;BME280;43284;47.042;15.498;2023-01-25T09:22:16;98526.72;;;1.53;100.00
57442;BME280;43284;47.042;15.498;2023-01-25T09:24:41;98521.59;;;1.56;100.00
57442;BME280;43284;47.042;15.498;2023-01-25T09:27:06;98515.59;;;1.55;100.00
57442;BME280;43284;47.042;15.498;2023-01-25T09:29:32;98522.44;;;1.52;100.00
57442;BME280;43284;47.042;15.498;2023-01-25T09:31:57;98513.00;;;1.54;100.00
57442;BME280;43284;47.042;15.498;2023-01-25T09:34:23;98513.03;;;1.55;100.00
57442;BME280;43284;47.042;15.498;2023-01-25T09:36:48;98512.13;;;1.55;100.00
57442;BME280;43284;47.042;15.498;2023-01-25T09:39:13;98511.28;;;1.57;100.00
57442;BME280;43284;47.042;15.498;2023-01-25T09:44:27;98502.78;;;1.66;100.00
57442;BME280;43284;47.042;15.498;2023-01-25T09:47:00;98495.06;;;1.64;100.00
57442;BME280;43284;47.042;15.498;2023-01-25T09:49:30;98501.97;;;1.72;100.00
57442;BME280;43284;47.042;15.498;2023-01-25T09:54:27;98500.28;;;1.77;100.00
57442;BME280;43284;47.042;15.498;2023-01-25T09:56:54;98496.91;;;1.79;100.00
57442;BME280;43284;47.042;15.498;2023-01-25T09:59:21;98493.47;;;1.80;100.00
57442;BME280;43284;47.042;15.498;2023-01-25T10:02:00;98495.16;;;1.78;100.00
57442;BME280;43284;47.042;15.498;2023-01-25T10:04:28;98490.84;;;1.76;99.93
57442;BME280;43284;47.042;15.498;2023-01-25T10:06:55;98487.38;;;1.74;100.00
57442;BME280;43284;47.042;15.498;2023-01-25T10:11:57;98475.44;;;1.82;100.00
57442;BME280;43284;47.042;15.498;2023-01-25T10:14:23;98474.53;;;1.78;99.42
57442;BME280;43284;47.042;15.498;2023-01-25T10:16:54;98470.25;;;1.80;99.49
57442;BME280;43284;47.042;15.498;2023-01-25T10:27:19;98444.53;;;1.88;99.09
57442;BME280;43284;47.042;15.498;2023-01-25T10:29:49;98451.44;;;1.94;99.40
57442;BME280;43284;47.042;15.498;2023-01-25T10:32:26;98445.44;;;1.93;98.61
57442;BME280;43284;47.042;15.498;2023-01-25T10:34:53;98431.69;;;1.96;98.28
57442;BME280;43284;47.042;15.498;2023-01-25T10:37:21;98436.88;;;2.00;98.50
57442;BME280;43284;47.042;15.498;2023-01-25T10:42:18;98425.72;;;2.04;98.08
57442;BME280;43284;47.042;15.498;2023-01-25T10:44:44;98422.28;;;2.05;97.73
57442;BME280;43284;47.042;15.498;2023-01-25T10:52:25;98423.13;;;1.97;97.51
57442;BME280;43284;47.042;15.498;2023-01-25T10:57:34;98408.47;;;1.99;97.49
57442;BME280;43284;47.042;15.498;2023-01-25T11:00:01;98402.50;;;2.03;97.40
57442;BME280;43284;47.042;15.498;2023-01-25T11:02:45;98401.69;;;2.10;97.48
57442;BME280;43284;47.042;15.498;2023-01-25T11:07:42;98388.75;;;2.07;97.29
57442;BME280;43284;47.042;15.498;2023-01-25T11:12:56;98389.56;;;1.98;96.33
57442;BME280;43284;47.042;15.498;2023-01-25T11:15:34;98379.25;;;1.98;96.89
57442;BME280;43284;47.042;15.498;2023-01-25T11:18:06;98380.13;;;1.97;96.46
57442;BME280;43284;47.042;15.498;2023-01-25T11:20:36;98369.81;;;1.97;96.62
57442;BME280;43284;47.042;15.498;2023-01-25T11:23:01;98370.69;;;2.02;97.46
57442;BME280;43284;47.042;15.498;2023-01-25T11:25:30;98364.69;;;2.05;97.86
57442;BME280;43284;47.042;15.498;2023-01-25T11:28:10;98362.97;;;2.04;97.69
57442;BME280;43284;47.042;15.498;2023-01-25T11:30:35;98360.38;;;2.05;97.65
57442;BME280;43284;47.042;15.498;2023-01-25T11:33:01;98353.50;;;2.04;97.08
57442;BME280;43284;47.042;15.498;2023-01-25T11:35:28;98340.63;;;2.06;97.57
57442;BME280;43284;47.042;15.498;2023-01-25T11:53:45;98315.75;;;2.20;96.78
57442;BME280;43284;47.042;15.498;2023-01-25T12:06:55;98299.41;;;2.17;96.93
57442;BME280;43284;47.042;15.498;2023-01-25T12:11:53;98296.00;;;2.21;97.47
57442;BME280;43284;47.042;15.498;2023-01-25T12:19:23;98289.06;;;2.09;96.21
57442;BME280;43284;47.042;15.498;2023-01-25T12:21:56;98284.78;;;2.13;96.50
57442;BME280;43284;47.042;15.498;2023-01-25T12:32:31;98262.44;;;2.18;97.88
57442;BME280;43284;47.042;15.498;2023-01-25T12:35:21;98255.53;;;2.18;97.65
57442;BME280;43284;47.042;15.498;2023-01-25T12:37:38;98247.81;;;2.20;97.71
57442;BME280;43284;47.042;15.498;2023-01-25T12:40:13;98249.56;;;2.21;97.41
57442;BME280;43284;47.042;15.498;2023-01-25T12:42:43;98246.09;;;2.20;97.02
57442;BME280;43284;47.042;15.498;2023-01-25T12:45:16;98245.22;;;2.23;97.15
57442;BME280;43284;47.042;15.498;2023-01-25T12:48:02;98245.25;;;2.21;96.89
57442;BME280;43284;47.042;15.498;2023-01-25T12:50:34;98241.78;;;2.18;95.91
57442;BME280;43284;47.042;15.498;2023-01-25T12:53:09;98240.09;;;2.17;95.58
57442;BME280;43284;47.042;15.498;2023-01-25T12:55:37;98238.38;;;2.23;95.97
57442;BME280;43284;47.042;15.498;2023-01-25T13:00:47;98229.78;;;2.24;95.76
57442;BME280;43284;47.042;15.498;2023-01-25T13:13:51;98215.16;;;2.28;94.17
57442;BME280;43284;47.042;15.498;2023-01-25T13:18:48;98216.00;;;2.24;94.08
57442;BME280;43284;47.042;15.498;2023-01-25T13:32:12;98203.97;;;2.17;94.16
57442;BME280;43284;47.042;15.498;2023-01-25T13:42:31;98210.84;;;2.15;94.34
57442;BME280;43284;47.042;15.498;2023-01-25T13:45:02;98206.53;;;2.09;94.25
57442;BME280;43284;47.042;15.498;2023-01-25T13:47:29;98197.09;;;2.08;94.28
57442;BME280;43284;47.042;15.498;2023-01-25T13:49:58;98190.19;;;2.07;94.23
57442;BME280;43284;47.042;15.498;2023-01-25T13:52:25;98192.75;;;2.07;94.20
57442;BME280;43284;47.042;15.498;2023-01-25T13:54:53;98184.19;;;2.03;94.19
57442;BME280;43284;47.042;15.498;2023-01-25T13:57:29;98187.59;;;1.99;93.73
57442;BME280;43284;47.042;15.498;2023-01-25T14:00:04;98192.75;;;1.99;93.87
57442;BME280;43284;47.042;15.498;2023-01-25T14:02:30;98189.31;;;2.00;94.62
57442;BME280;43284;47.042;15.498;2023-01-25T14:04:57;98179.00;;;2.00;94.63
57442;BME280;43284;47.042;15.498;2023-01-25T14:07:25;98185.03;;;2.02;95.08
57442;BME280;43284;47.042;15.498;2023-01-25T14:09:52;98187.59;;;2.05;95.33
57442;BME280;43284;47.042;15.498;2023-01-25T14:12:50;98184.16;;;2.02;95.21
57442;BME280;43284;47.042;15.498;2023-01-25T14:17:41;98183.31;;;2.00;94.90
57442;BME280;43284;47.042;15.498;2023-01-25T14:20:15;98182.44;;;1.98;95.17
57442;BME280;43284;47.042;15.498;2023-01-25T14:22:41;98185.03;;;1.98;95.08
57442;BME280;43284;47.042;15.498;2023-01-25T14:25:15;98179.88;;;1.95;94.59
57442;BME280;43284;47.042;15.498;2023-01-25T14:30:11;98181.56;;;1.94;94.82
57442;BME280;43284;47.042;15.498;2023-01-25T14:32:39;98179.84;;;1.89;94.30
57442;BME280;43284;47.042;15.498;2023-01-25T14:35:30;98185.00;;;1.89;94.62
57442;BME280;43284;47.042;15.498;2023-01-25T14:37:56;98181.56;;;1.87;94.58
57442;BME280;43284;47.042;15.498;2023-01-25T14:40:22;98175.53;;;1.88;94.78
57442;BME280;43284;47.042;15.498;2023-01-25T14:42:48;98176.41;;;1.88;94.83
57442;BME280;43284;47.042;15.498;2023-01-25T14:45:14;98176.41;;;1.87;94.36
57442;BME280;43284;47.042;15.498;2023-01-25T14:47:40;98177.25;;;1.87;95.21
57442;BME280;43284;47.042;15.498;2023-01-25T14:52:49;98178.13;;;1.84;95.05